Time;durP1;ratioP1;P1;durP2;ratioP2;P2;SDS_P1;SDS_P2;PMS_P1;PMS_P2;Temp;Humidity;BMP_temperature;BMP_pressure;BME280_temperature;BME280_humidity;BME280_pressure;Samples;Min_cycle;Max_cycle;Signal;HPM_P1;HPM_P2
2023/04/25 00:02:16;;;;;;;0.93;0.68;;;9.20;99.90;;;;;;4983379;28;20202;-65
2023/04/25 00:04:44;;;;;;;0.60;0.57;;;9.30;99.90;;;;;;4982411;28;20242;-63
2023/04/25 00:07:12;;;;;;;0.60;0.60;;;9.30;99.90;;;;;;4983382;28;20229;-64
2023/04/25 00:09:42;;;;;;;1.00;0.90;;;9.10;99.90;;;;;;4983388;28;20284;-63
2023/04/25 00:12:10;;;;;;;0.70;0.57;;;9.10;99.90;;;;;;4980738;28;20254;-62
2023/04/25 00:14:38;;;;;;;0.60;0.60;;;9.20;99.90;;;;;;4975390;28;20320;-63
2023/04/25 00:17:06;;;;;;;1.20;1.10;;;9.20;99.90;;;;;;4976072;28;20232;-63
2023/04/25 00:19:34;;;;;;;0.80;0.77;;;9.20;99.90;;;;;;4983158;28;20234;-63
2023/04/25 00:22:02;;;;;;;0.70;0.65;;;9.20;99.90;;;;;;4981983;28;20198;-64
2023/04/25 00:24:30;;;;;;;0.77;0.52;;;9.20;99.90;;;;;;4987430;28;20643;-64
2023/04/25 00:26:59;;;;;;;1.20;0.77;;;9.20;99.90;;;;;;4989321;28;20225;-64
2023/04/25 00:29:27;;;;;;;0.60;0.57;;;9.30;99.90;;;;;;4985622;28;20217;-64
2023/04/25 00:31:55;;;;;;;0.82;0.80;;;9.30;99.90;;;;;;4981080;28;20769;-64
2023/04/25 00:34:23;;;;;;;0.70;0.57;;;9.40;99.90;;;;;;4978599;28;20204;-63
2023/04/25 00:36:51;;;;;;;0.60;0.57;;;9.50;99.90;;;;;;4973440;28;20707;-64
2023/04/25 00:39:19;;;;;;;0.85;0.75;;;9.50;99.90;;;;;;4973146;28;20743;-65
2023/04/25 00:41:47;;;;;;;0.50;0.40;;;9.60;99.90;;;;;;4973316;28;20296;-64
2023/04/25 00:44:18;;;;;;;0.70;0.60;;;9.70;99.90;;;;;;4973766;28;20579;-64
2023/04/25 00:46:47;;;;;;;0.63;0.63;;;9.60;99.90;;;;;;4980286;28;20241;-65
2023/04/25 00:49:16;;;;;;;0.75;0.75;;;9.60;99.90;;;;;;4973121;28;20214;-65
2023/04/25 00:51:45;;;;;;;0.73;0.73;;;9.70;99.90;;;;;;4972790;28;20261;-65
2023/04/25 00:54:13;;;;;;;1.00;0.90;;;9.70;99.90;;;;;;4973182;28;20211;-65
2023/04/25 00:56:42;;;;;;;0.70;0.60;;;9.80;99.90;;;;;;4990864;28;20286;-65
2023/04/25 00:59:11;;;;;;;0.90;0.80;;;9.90;99.90;;;;;;4987558;28;20219;-66
2023/04/25 01:01:40;;;;;;;0.65;0.65;;;9.90;99.90;;;;;;4985231;28;20957;-65
2023/04/25 01:04:08;;;;;;;0.75;0.75;;;10.00;99.90;;;;;;4984424;28;20206;-64
2023/04/25 01:06:36;;;;;;;1.70;1.38;;;10.00;99.90;;;;;;4986651;28;20317;-64
2023/04/25 01:09:05;;;;;;;0.75;0.70;;;10.10;99.90;;;;;;4973515;28;20238;-64
2023/04/25 01:11:33;;;;;;;1.45;0.95;;;10.20;99.90;;;;;;4975881;28;20305;-64
2023/04/25 01:14:01;;;;;;;0.80;0.50;;;10.20;99.90;;;;;;4972772;28;20642;-64
2023/04/25 01:16:29;;;;;;;0.60;0.50;;;10.20;99.90;;;;;;4972843;28;20280;-64
2023/04/25 01:18:59;;;;;;;0.60;0.40;;;10.20;99.90;;;;;;4974422;28;20210;-63
2023/04/25 01:21:29;;;;;;;0.77;0.70;;;10.20;99.90;;;;;;4986908;28;20285;-64
2023/04/25 01:23:57;;;;;;;1.65;1.17;;;10.20;99.90;;;;;;4988337;28;20686;-64
2023/04/25 01:26:26;;;;;;;0.80;0.55;;;10.20;99.90;;;;;;4984831;28;20313;-64
2023/04/25 01:28:54;;;;;;;0.50;0.40;;;10.20;99.90;;;;;;4987363;28;20313;-64
2023/04/25 01:31:22;;;;;;;0.88;0.63;;;10.20;99.90;;;;;;4981777;28;20222;-64
2023/04/25 01:33:50;;;;;;;0.60;0.40;;;10.30;99.90;;;;;;4983951;28;20205;-65
2023/04/25 01:36:19;;;;;;;0.75;0.73;;;10.20;99.90;;;;;;4984637;28;20222;-64
2023/04/25 01:38:48;;;;;;;0.60;0.52;;;10.20;99.90;;;;;;4985253;28;20734;-64
2023/04/25 01:41:17;;;;;;;0.68;0.60;;;10.10;99.90;;;;;;4980406;28;20286;-64
2023/04/25 01:43:45;;;;;;;0.50;0.30;;;10.10;99.90;;;;;;4984145;28;20237;-64
2023/04/25 01:46:13;;;;;;;1.75;1.65;;;10.10;99.90;;;;;;4988274;28;20230;-64
2023/04/25 01:48:41;;;;;;;0.60;0.40;;;10.10;99.90;;;;;;4988936;28;20209;-64
2023/04/25 01:51:11;;;;;;;0.60;0.47;;;10.20;99.90;;;;;;4983347;28;20230;-65
2023/04/25 01:53:39;;;;;;;0.60;0.55;;;10.20;99.90;;;;;;4982455;28;20285;-65
2023/04/25 01:56:08;;;;;;;0.50;0.40;;;10.20;99.90;;;;;;4987893;28;20268;-65
2023/04/25 01:58:36;;;;;;;0.70;0.65;;;10.20;99.90;;;;;;4989153;28;20205;-64
2023/04/25 02:01:04;;;;;;;0.65;0.65;;;10.20;99.90;;;;;;4984029;28;20202;-63
2023/04/25 02:03:33;;;;;;;0.50;0.40;;;10.30;99.90;;;;;;4986611;28;20209;-63
2023/04/25 02:06:01;;;;;;;0.50;0.30;;;10.30;99.90;;;;;;4985371;28;20305;-65
2023/04/25 02:08:30;;;;;;;0.60;0.60;;;10.30;99.90;;;;;;4984661;28;20280;-65
2023/04/25 02:10:57;;;;;;;0.70;0.50;;;10.30;99.90;;;;;;4986470;28;20229;-64
2023/04/25 02:13:27;;;;;;;0.60;0.50;;;10.30;99.90;;;;;;4987093;28;20229;-65
2023/04/25 02:15:54;;;;;;;0.93;0.82;;;10.30;99.90;;;;;;4983297;28;20249;-63
2023/04/25 02:18:23;;;;;;;0.80;0.80;;;10.30;99.90;;;;;;4985686;28;20202;-65
2023/04/25 02:20:50;;;;;;;0.95;0.65;;;10.30;99.90;;;;;;4984410;28;20296;-64
2023/04/25 02:23:19;;;;;;;0.80;0.70;;;10.30;99.90;;;;;;4984651;28;20230;-65
2023/04/25 02:25:47;;;;;;;0.70;0.70;;;10.30;99.90;;;;;;4981534;28;21914;-65
2023/04/25 02:28:15;;;;;;;0.90;0.77;;;10.30;99.90;;;;;;4986431;28;20202;-65
2023/04/25 02:30:44;;;;;;;0.63;0.50;;;10.20;99.90;;;;;;4985893;28;20571;-65
2023/04/25 02:33:12;;;;;;;0.60;0.50;;;10.10;99.90;;;;;;4986525;28;20661;-64
2023/04/25 02:35:40;;;;;;;1.02;1.02;;;10.00;99.90;;;;;;4982243;28;20212;-65
2023/04/25 02:38:07;;;;;;;1.15;1.05;;;10.00;99.90;;;;;;4983173;28;20214;-64
2023/04/25 02:40:35;;;;;;;0.82;0.75;;;10.00;99.90;;;;;;4986521;28;20291;-64
2023/04/25 02:43:03;;;;;;;0.60;0.43;;;9.80;99.90;;;;;;4984748;28;20280;-64
2023/04/25 02:45:31;;;;;;;0.80;0.50;;;9.80;99.90;;;;;;4989283;28;20217;-66
2023/04/25 02:48:00;;;;;;;0.60;0.50;;;9.70;99.90;;;;;;4991604;28;20202;-63
2023/04/25 02:50:28;;;;;;;5.43;1.05;;;9.70;99.90;;;;;;4990534;28;20202;-64
2023/04/25 02:52:56;;;;;;;0.88;0.52;;;9.80;99.90;;;;;;4990571;28;20229;-64
2023/04/25 02:55:24;;;;;;;0.95;0.73;;;9.90;99.90;;;;;;4989005;28;20217;-64
2023/04/25 02:57:56;;;;;;;1.08;0.75;;;10.00;99.90;;;;;;4983060;28;20230;-66
2023/04/25 03:00:23;;;;;;;0.63;0.60;;;10.00;99.90;;;;;;4985583;28;20325;-65
2023/04/25 03:02:51;;;;;;;0.60;0.50;;;10.00;99.90;;;;;;4986668;28;20208;-65
2023/04/25 03:05:21;;;;;;;0.70;0.50;;;9.90;99.90;;;;;;4986992;28;20329;-65
2023/04/25 03:07:49;;;;;;;1.63;1.52;;;9.90;99.90;;;;;;4984923;28;20321;-65
2023/04/25 03:10:16;;;;;;;1.35;0.57;;;9.90;99.90;;;;;;4994189;28;20256;-66
2023/04/25 03:12:44;;;;;;;0.82;0.60;;;9.80;99.90;;;;;;4993977;28;20305;-65
2023/04/25 03:15:12;;;;;;;0.95;0.75;;;9.60;99.90;;;;;;4996892;28;20230;-64
2023/04/25 03:17:40;;;;;;;0.90;0.60;;;9.40;99.90;;;;;;4984654;28;20231;-64
2023/04/25 03:20:09;;;;;;;0.70;0.68;;;9.30;99.90;;;;;;4987122;28;20650;-63
2023/04/25 03:22:39;;;;;;;1.02;0.95;;;9.20;99.90;;;;;;4986835;28;20281;-64
2023/04/25 03:25:08;;;;;;;0.98;0.60;;;9.10;99.90;;;;;;4989159;28;20237;-64
2023/04/25 03:27:36;;;;;;;1.00;0.60;;;9.00;99.90;;;;;;4986819;28;20786;-64
2023/04/25 03:30:04;;;;;;;0.70;0.50;;;9.10;99.90;;;;;;4982405;28;20234;-63
2023/04/25 03:32:32;;;;;;;0.80;0.63;;;9.10;99.90;;;;;;4988104;28;20236;-65
2023/04/25 03:35:00;;;;;;;1.17;0.98;;;9.20;99.90;;;;;;4983045;28;20612;-65
2023/04/25 03:37:28;;;;;;;1.05;0.95;;;9.00;99.90;;;;;;4981651;28;20316;-66
2023/04/25 03:39:57;;;;;;;1.70;1.00;;;9.00;99.90;;;;;;4979542;28;20296;-65
2023/04/25 03:42:25;;;;;;;1.10;1.00;;;9.10;99.90;;;;;;4987683;28;20214;-65
2023/04/25 03:44:53;;;;;;;0.60;0.57;;;9.20;99.90;;;;;;4986787;28;20320;-65
2023/04/25 03:47:21;;;;;;;1.13;1.05;;;9.30;99.90;;;;;;4987127;28;20218;-65
2023/04/25 03:49:51;;;;;;;0.60;0.50;;;9.20;99.90;;;;;;4986542;28;20642;-65
2023/04/25 03:52:19;;;;;;;1.15;1.05;;;9.30;99.90;;;;;;4986755;28;20290;-65
2023/04/25 03:54:47;;;;;;;1.13;0.82;;;9.20;99.90;;;;;;4989544;28;20292;-65
2023/04/25 03:57:16;;;;;;;0.93;0.75;;;9.10;99.90;;;;;;4988806;28;20744;-65
2023/04/25 03:59:44;;;;;;;0.70;0.60;;;9.00;99.90;;;;;;4983965;28;20345;-64
2023/04/25 04:02:12;;;;;;;0.95;0.80;;;9.00;99.90;;;;;;4986509;28;20212;-66
2023/04/25 04:04:40;;;;;;;0.90;0.65;;;8.90;99.90;;;;;;4986644;28;20260;-65
2023/04/25 04:07:10;;;;;;;1.20;1.10;;;9.00;99.90;;;;;;4989618;28;20693;-64
2023/04/25 04:09:37;;;;;;;0.98;0.88;;;8.90;99.90;;;;;;4988068;28;20288;-65
2023/04/25 04:12:06;;;;;;;1.60;0.95;;;8.70;99.90;;;;;;4988171;28;20551;-65
2023/04/25 04:14:35;;;;;;;1.40;0.88;;;8.70;99.90;;;;;;4973946;28;20241;-65
2023/04/25 04:17:03;;;;;;;0.60;0.60;;;8.80;99.90;;;;;;4985008;28;20249;-65
2023/04/25 04:19:31;;;;;;;0.70;0.57;;;8.70;99.90;;;;;;4987562;28;20234;-66
2023/04/25 04:21:58;;;;;;;1.92;1.27;;;8.70;99.90;;;;;;4983931;28;20209;-64
2023/04/25 04:24:26;;;;;;;2.35;1.15;;;8.60;99.90;;;;;;4987527;28;20244;-64
2023/04/25 04:26:54;;;;;;;1.10;1.00;;;8.50;99.90;;;;;;4984866;28;20233;-64
2023/04/25 04:29:22;;;;;;;1.02;0.93;;;8.50;99.90;;;;;;4987539;28;20208;-64
2023/04/25 04:31:52;;;;;;;0.60;0.60;;;8.50;99.90;;;;;;4980983;28;20238;-64
2023/04/25 04:34:20;;;;;;;0.60;0.50;;;8.50;99.90;;;;;;4985405;28;20224;-64
2023/04/25 04:36:48;;;;;;;1.58;1.48;;;8.40;99.90;;;;;;4985215;28;20230;-64
2023/04/25 04:39:16;;;;;;;0.70;0.50;;;8.60;99.90;;;;;;4981926;28;20211;-65
2023/04/25 04:41:44;;;;;;;1.10;0.88;;;8.70;99.90;;;;;;4983428;28;20303;-65
2023/04/25 04:44:12;;;;;;;0.95;0.73;;;8.70;99.90;;;;;;4982974;28;20201;-64
2023/04/25 04:46:41;;;;;;;0.82;0.80;;;8.70;99.90;;;;;;4983032;28;20229;-64
2023/04/25 04:49:12;;;;;;;1.35;0.70;;;8.70;99.90;;;;;;4984540;28;20218;-64
2023/04/25 04:51:41;;;;;;;2.15;1.10;;;8.80;99.90;;;;;;4982876;28;20246;-64
2023/04/25 04:54:08;;;;;;;1.35;1.02;;;8.90;99.90;;;;;;4977435;28;20218;-65
2023/04/25 04:56:36;;;;;;;0.95;0.95;;;9.00;99.90;;;;;;4982154;28;20324;-63
2023/04/25 04:59:04;;;;;;;1.15;0.70;;;9.10;99.90;;;;;;4987934;28;20293;-64
2023/04/25 05:01:32;;;;;;;1.08;0.80;;;9.10;99.90;;;;;;4984450;28;20202;-64
2023/04/25 05:04:00;;;;;;;0.70;0.60;;;9.10;99.90;;;;;;4983207;28;20225;-63
2023/04/25 05:06:31;;;;;;;1.35;1.25;;;9.20;99.90;;;;;;4982628;28;20234;-64
2023/04/25 05:09:00;;;;;;;0.80;0.70;;;9.20;99.90;;;;;;4985054;28;20210;-64
2023/04/25 05:11:27;;;;;;;1.27;0.90;;;9.30;99.90;;;;;;4984730;28;20212;-64
2023/04/25 05:13:55;;;;;;;1.05;0.95;;;9.30;99.90;;;;;;4983694;28;20766;-63
2023/04/25 05:16:23;;;;;;;1.00;0.90;;;9.40;99.90;;;;;;4979622;28;20253;-64
2023/04/25 05:18:51;;;;;;;0.60;0.50;;;9.50;99.90;;;;;;4983858;28;20210;-64
2023/04/25 05:21:19;;;;;;;0.77;0.73;;;9.60;99.90;;;;;;4982921;28;20659;-64
2023/04/25 05:23:49;;;;;;;0.60;0.50;;;9.60;99.90;;;;;;4980276;28;20277;-64
2023/04/25 05:26:17;;;;;;;0.70;0.60;;;9.70;99.90;;;;;;4982628;28;20217;-64
2023/04/25 05:28:45;;;;;;;0.68;0.68;;;9.50;99.90;;;;;;4997857;28;20299;-65
2023/04/25 05:31:13;;;;;;;1.50;0.75;;;9.50;99.90;;;;;;4986673;28;20230;-63
2023/04/25 05:33:40;;;;;;;0.65;0.50;;;9.60;99.90;;;;;;4984837;28;20315;-64
2023/04/25 05:36:09;;;;;;;0.60;0.47;;;9.60;99.90;;;;;;4983656;28;20658;-63
2023/04/25 05:38:37;;;;;;;0.80;0.77;;;9.60;99.90;;;;;;4985992;28;20205;-65
2023/04/25 05:41:07;;;;;;;1.00;0.50;;;9.50;99.90;;;;;;4985193;28;20684;-64
2023/04/25 05:43:34;;;;;;;0.90;0.80;;;9.30;99.90;;;;;;4984345;28;20605;-64
2023/04/25 05:46:02;;;;;;;0.93;0.90;;;9.30;99.90;;;;;;4983348;28;20225;-64
2023/04/25 05:48:30;;;;;;;0.60;0.50;;;9.40;99.90;;;;;;4982609;28;20216;-65
2023/04/25 05:50:58;;;;;;;0.70;0.70;;;9.40;99.90;;;;;;4983637;28;20212;-64
2023/04/25 05:53:26;;;;;;;0.70;0.50;;;9.40;99.90;;;;;;4984167;28;20288;-64
2023/04/25 05:55:54;;;;;;;0.75;0.75;;;9.50;99.90;;;;;;4987277;28;20253;-64
2023/04/25 05:58:23;;;;;;;0.77;0.70;;;9.50;99.90;;;;;;4989483;28;20284;-64
2023/04/25 06:00:51;;;;;;;0.77;0.75;;;9.50;99.90;;;;;;4983977;28;20220;-63
2023/04/25 06:03:20;;;;;;;0.60;0.60;;;9.60;99.90;;;;;;4982188;28;20206;-64
2023/04/25 06:05:48;;;;;;;1.00;0.75;;;9.80;99.90;;;;;;4983376;28;20234;-64
2023/04/25 06:08:16;;;;;;;0.60;0.50;;;10.00;99.90;;;;;;4984099;28;20333;-64
2023/04/25 06:10:44;;;;;;;0.77;0.77;;;9.80;99.90;;;;;;4973226;28;20303;-64
2023/04/25 06:13:12;;;;;;;0.85;0.77;;;9.90;99.90;;;;;;4981405;28;20209;-63
2023/04/25 06:15:41;;;;;;;0.60;0.52;;;9.70;99.90;;;;;;4984117;28;20733;-66
2023/04/25 06:18:09;;;;;;;1.10;0.73;;;9.60;99.90;;;;;;4978920;28;20213;-64
2023/04/25 06:20:37;;;;;;;0.70;0.60;;;9.50;99.90;;;;;;4988184;28;20283;-65
2023/04/25 06:23:05;;;;;;;0.80;0.70;;;9.60;99.90;;;;;;4984962;28;20625;-64
2023/04/25 06:25:33;;;;;;;0.60;0.50;;;9.60;99.90;;;;;;4990477;28;20204;-64
2023/04/25 06:28:00;;;;;;;0.60;0.50;;;9.60;99.90;;;;;;5013646;28;20295;-64
2023/04/25 06:30:28;;;;;;;0.70;0.70;;;9.70;99.90;;;;;;5000278;28;20284;-65
2023/04/25 06:32:57;;;;;;;0.60;0.47;;;9.40;99.90;;;;;;4986889;28;20206;-65
2023/04/25 06:35:25;;;;;;;0.70;0.60;;;9.50;99.90;;;;;;4995261;28;20269;-64
2023/04/25 06:37:53;;;;;;;0.60;0.50;;;9.70;99.90;;;;;;4994944;28;20292;-64
2023/04/25 06:40:21;;;;;;;0.60;0.45;;;9.90;99.90;;;;;;4995122;28;20209;-65
2023/04/25 06:42:49;;;;;;;0.80;0.80;;;10.00;99.90;;;;;;4994791;28;20209;-65
2023/04/25 06:45:17;;;;;;;0.60;0.60;;;10.20;99.90;;;;;;4991537;28;20281;-66
2023/04/25 06:47:45;;;;;;;0.57;0.43;;;10.30;99.90;;;;;;4994719;28;20798;-65
2023/04/25 06:50:14;;;;;;;0.50;0.40;;;10.40;99.90;;;;;;4994761;28;20206;-64
2023/04/25 06:52:42;;;;;;;0.60;0.45;;;10.40;99.90;;;;;;4994569;28;20214;-64
2023/04/25 06:55:10;;;;;;;0.68;0.50;;;10.20;99.90;;;;;;4994869;28;20319;-65
2023/04/25 06:57:38;;;;;;;0.60;0.47;;;10.00;99.90;;;;;;5006427;28;20239;-64
2023/04/25 07:00:09;;;;;;;0.63;0.45;;;10.00;99.90;;;;;;5001055;28;20233;-65
2023/04/25 07:02:37;;;;;;;0.50;0.40;;;10.20;99.90;;;;;;4994573;28;20237;-65
2023/04/25 07:05:05;;;;;;;0.60;0.60;;;10.20;99.90;;;;;;4994589;28;20198;-65
2023/04/25 07:07:34;;;;;;;1.60;0.55;;;10.40;99.90;;;;;;4994666;28;20673;-64
2023/04/25 07:10:02;;;;;;;0.90;0.60;;;10.60;99.90;;;;;;4994231;28;20301;-65
2023/04/25 07:12:30;;;;;;;0.90;0.75;;;10.70;99.90;;;;;;4994319;28;20281;-64
2023/04/25 07:14:58;;;;;;;0.50;0.40;;;10.80;99.90;;;;;;4994002;28;20256;-64
2023/04/25 07:17:26;;;;;;;0.80;0.57;;;10.90;99.90;;;;;;4994352;28;20770;-64
2023/04/25 07:19:54;;;;;;;0.70;0.45;;;10.90;99.90;;;;;;4994060;28;20233;-64
2023/04/25 07:22:22;;;;;;;0.50;0.30;;;10.90;99.90;;;;;;4994252;28;20743;-64
2023/04/25 07:24:53;;;;;;;0.60;0.40;;;10.90;99.90;;;;;;4994231;28;20750;-65
2023/04/25 07:27:20;;;;;;;0.98;0.85;;;10.90;99.90;;;;;;5007404;28;20602;-64
2023/04/25 07:29:48;;;;;;;0.60;0.50;;;10.70;99.90;;;;;;5003192;28;20213;-64
2023/04/25 07:32:16;;;;;;;0.55;0.40;;;10.50;99.90;;;;;;4987083;28;20723;-64
2023/04/25 07:34:44;;;;;;;1.08;0.60;;;10.40;99.90;;;;;;4994207;28;20617;-65
2023/04/25 07:37:12;;;;;;;0.95;0.70;;;10.20;99.90;;;;;;4993963;28;20233;-64
2023/04/25 07:39:40;;;;;;;0.50;0.30;;;10.20;99.90;;;;;;4993219;28;20332;-64
2023/04/25 07:42:09;;;;;;;0.50;0.40;;;10.20;99.90;;;;;;4993710;28;20217;-65
2023/04/25 07:44:38;;;;;;;0.75;0.40;;;10.30;99.90;;;;;;4994160;28;20263;-64
2023/04/25 07:47:07;;;;;;;0.60;0.40;;;10.50;99.90;;;;;;4993931;28;20315;-64
2023/04/25 07:49:36;;;;;;;0.60;0.50;;;10.50;99.90;;;;;;4993791;28;20634;-65
2023/04/25 07:52:05;;;;;;;0.70;0.57;;;10.60;99.90;;;;;;4993703;28;20285;-64
2023/04/25 07:54:33;;;;;;;0.50;0.40;;;10.70;99.90;;;;;;4993059;28;20205;-64
2023/04/25 07:57:02;;;;;;;0.50;0.40;;;10.50;99.90;;;;;;5001182;28;20237;-64
2023/04/25 07:59:31;;;;;;;0.60;0.50;;;10.40;99.90;;;;;;5001762;28;20206;-63
2023/04/25 08:01:59;;;;;;;0.70;0.60;;;10.20;99.90;;;;;;4993618;28;20639;-65
2023/04/25 08:04:27;;;;;;;0.95;0.85;;;10.00;99.90;;;;;;4993486;28;20216;-64
2023/04/25 08:06:55;;;;;;;0.57;0.45;;;10.00;99.90;;;;;;4993521;28;20229;-65
2023/04/25 08:09:23;;;;;;;0.60;0.40;;;10.10;99.90;;;;;;4993730;28;20209;-64
2023/04/25 08:11:51;;;;;;;0.50;0.40;;;10.30;99.90;;;;;;4992684;28;20209;-64
2023/04/25 08:14:19;;;;;;;2.20;0.82;;;10.40;99.90;;;;;;4993352;28;20236;-64
2023/04/25 08:16:48;;;;;;;0.60;0.40;;;10.70;99.90;;;;;;4993239;28;20230;-64
2023/04/25 08:19:16;;;;;;;0.70;0.63;;;10.80;99.90;;;;;;4993329;28;20241;-64
2023/04/25 08:21:44;;;;;;;1.35;0.82;;;11.00;99.90;;;;;;4993329;28;20229;-64
2023/04/25 08:24:12;;;;;;;0.60;0.50;;;11.20;99.90;;;;;;4985080;28;20572;-62
2023/04/25 08:26:41;;;;;;;0.65;0.47;;;11.40;99.90;;;;;;4997824;28;20228;-64
2023/04/25 08:29:08;;;;;;;0.50;0.30;;;11.60;99.90;;;;;;5000838;28;20237;-64
2023/04/25 08:31:37;;;;;;;0.60;0.47;;;11.60;99.90;;;;;;4993148;28;20240;-64
2023/04/25 08:34:06;;;;;;;0.95;0.63;;;11.70;99.90;;;;;;4975230;28;20217;-64
2023/04/25 08:36:34;;;;;;;0.52;0.38;;;11.80;99.90;;;;;;4993315;28;20248;-65
2023/04/25 08:39:07;;;;;;;2.35;0.63;;;11.80;99.90;;;;;;4992927;28;20671;-64
2023/04/25 08:41:37;;;;;;;0.50;0.40;;;11.70;99.90;;;;;;4992828;28;20206;-64
2023/04/25 08:44:07;;;;;;;0.50;0.40;;;11.50;99.90;;;;;;4992499;28;20301;-64
2023/04/25 08:46:35;;;;;;;0.93;0.60;;;11.40;99.90;;;;;;4984915;28;20295;-64
2023/04/25 08:49:03;;;;;;;0.50;0.40;;;11.50;99.90;;;;;;4992435;28;20241;-64
2023/04/25 08:51:34;;;;;;;0.60;0.40;;;11.60;99.90;;;;;;4992715;28;20213;-64
2023/04/25 08:54:10;;;;;;;0.60;0.50;;;11.50;99.90;;;;;;4992374;28;20292;-64
2023/04/25 08:57:01;;;;;;;0.50;0.30;;;11.40;99.90;;;;;;4999921;28;20233;-64
2023/04/25 08:59:30;;;;;;;0.50;0.40;;;11.70;99.90;;;;;;4984832;28;20214;-64
2023/04/25 09:01:59;;;;;;;0.50;0.40;;;12.00;99.90;;;;;;4975181;28;20210;-64
2023/04/25 09:04:26;;;;;;;0.60;0.50;;;12.00;99.90;;;;;;4972919;28;20286;-64
2023/04/25 09:06:56;;;;;;;1.02;1.02;;;12.00;99.90;;;;;;4972811;28;20302;-64
2023/04/25 09:09:25;;;;;;;0.60;0.50;;;12.00;99.90;;;;;;4972874;28;20206;-64
2023/04/25 09:11:55;;;;;;;0.60;0.60;;;12.40;99.90;;;;;;4972817;28;20246;-64
2023/04/25 09:14:25;;;;;;;0.60;0.40;;;12.70;99.90;;;;;;4972664;28;20639;-64
2023/04/25 09:17:04;;;;;;;0.50;0.40;;;12.60;99.90;;;;;;4979616;28;20226;-64
2023/04/25 09:19:35;;;;;;;0.60;0.52;;;12.70;99.90;;;;;;4972714;28;20682;-64
2023/04/25 09:22:09;;;;;;;0.80;0.77;;;12.70;99.90;;;;;;4972523;28;20297;-64
2023/04/25 09:24:39;;;;;;;0.80;0.43;;;12.50;99.90;;;;;;4972572;28;20587;-64
2023/04/25 09:27:08;;;;;;;0.50;0.38;;;12.50;99.90;;;;;;4972517;28;20266;-64
2023/04/25 09:29:37;;;;;;;1.13;0.73;;;12.20;99.90;;;;;;5006387;28;20296;-64
2023/04/25 09:32:13;;;;;;;0.50;0.40;;;12.10;99.90;;;;;;4985629;28;20216;-65
2023/04/25 09:34:42;;;;;;;0.88;0.73;;;12.10;99.90;;;;;;4991828;28;20209;-64
2023/04/25 09:37:12;;;;;;;1.13;1.02;;;12.10;99.90;;;;;;4991746;28;20406;-64
2023/04/25 09:39:40;;;;;;;0.50;0.38;;;12.30;99.90;;;;;;4992026;28;20213;-64
2023/04/25 09:42:10;;;;;;;0.80;0.80;;;12.50;99.90;;;;;;4991714;28;20206;-64
2023/04/25 09:44:43;;;;;;;0.70;0.40;;;12.50;99.90;;;;;;4991841;28;20202;-65
2023/04/25 09:47:12;;;;;;;0.60;0.55;;;12.20;99.90;;;;;;4991591;28;20252;-65
2023/04/25 09:49:42;;;;;;;0.75;0.65;;;12.10;99.90;;;;;;4991666;28;20237;-65
2023/04/25 09:52:15;;;;;;;0.80;0.65;;;12.00;99.90;;;;;;4990719;28;20240;-65
2023/04/25 09:54:43;;;;;;;0.50;0.40;;;12.20;99.90;;;;;;4991617;28;20210;-65
2023/04/25 09:57:13;;;;;;;0.50;0.40;;;12.50;99.90;;;;;;4991162;28;20328;-65
2023/04/25 09:59:44;;;;;;;0.60;0.50;;;12.60;99.90;;;;;;5009026;28;20645;-65
2023/04/25 10:02:14;;;;;;;0.60;0.50;;;12.60;99.90;;;;;;5000148;28;20264;-66
2023/04/25 10:04:42;;;;;;;2.35;0.82;;;12.50;99.90;;;;;;4991292;28;20210;-65
2023/04/25 10:07:12;;;;;;;0.77;0.50;;;12.40;99.90;;;;;;4990949;28;20632;-65
2023/04/25 10:09:41;;;;;;;0.70;0.60;;;12.50;99.90;;;;;;4991100;28;20288;-66
2023/04/25 10:12:10;;;;;;;0.80;0.40;;;12.50;99.90;;;;;;4991184;28;20647;-64
2023/04/25 10:14:39;;;;;;;1.20;0.88;;;12.50;99.90;;;;;;4991193;28;20293;-63
2023/04/25 10:17:08;;;;;;;0.63;0.60;;;12.60;99.90;;;;;;4991444;28;20250;-65
2023/04/25 10:19:36;;;;;;;0.60;0.40;;;12.40;99.90;;;;;;4991219;28;20211;-65
2023/04/25 10:22:08;;;;;;;0.57;0.43;;;12.60;99.90;;;;;;4990588;28;20284;-65
2023/04/25 10:24:39;;;;;;;0.60;0.50;;;12.60;99.90;;;;;;4991011;28;20206;-65
2023/04/25 10:27:07;;;;;;;2.55;1.23;;;12.70;99.90;;;;;;4991105;28;20258;-64
2023/04/25 10:29:36;;;;;;;0.60;0.40;;;13.00;99.90;;;;;;4999968;28;20757;-65
2023/04/25 10:32:04;;;;;;;0.60;0.52;;;13.30;99.90;;;;;;5001334;28;20292;-65
2023/04/25 10:34:40;;;;;;;0.50;0.40;;;13.40;99.90;;;;;;4991098;28;20218;-65
2023/04/25 10:37:11;;;;;;;0.60;0.50;;;13.60;99.90;;;;;;4984514;28;20941;-65
2023/04/25 10:39:43;;;;;;;0.80;0.65;;;13.60;99.90;;;;;;4990959;28;20232;-65
2023/04/25 10:42:12;;;;;;;0.68;0.50;;;13.60;99.90;;;;;;4991128;28;20237;-65
2023/04/25 10:44:40;;;;;;;0.60;0.40;;;13.50;99.90;;;;;;4990979;28;20214;-65
2023/04/25 10:47:09;;;;;;;0.60;0.50;;;13.10;99.90;;;;;;4990990;28;20226;-65
2023/04/25 10:49:39;;;;;;;0.60;0.50;;;12.80;99.90;;;;;;4991248;28;20209;-65
2023/04/25 10:52:17;;;;;;;0.50;0.30;;;12.60;99.90;;;;;;4991006;28;20221;-64
2023/04/25 10:54:53;;;;;;;1.35;0.90;;;12.20;99.90;;;;;;4990713;28;20310;-65
2023/04/25 10:57:38;;;;;;;0.60;0.43;;;12.10;99.90;;;;;;4983957;28;20280;-64
2023/04/25 11:00:16;;;;;;;0.52;0.38;;;12.00;99.90;;;;;;5006188;28;20211;-65
2023/04/25 11:02:46;;;;;;;0.50;0.40;;;11.90;99.90;;;;;;4996221;28;20267;-65
2023/04/25 11:05:23;;;;;;;0.50;0.40;;;12.20;99.90;;;;;;4992093;28;20205;-65
2023/04/25 11:07:54;;;;;;;0.60;0.40;;;12.50;99.90;;;;;;4991105;28;20246;-66
2023/04/25 11:10:36;;;;;;;0.60;0.50;;;12.40;99.90;;;;;;4988347;28;20213;-66
2023/04/25 11:13:04;;;;;;;1.17;1.08;;;12.60;99.90;;;;;;4994410;28;20574;-64
2023/04/25 11:15:32;;;;;;;0.50;0.30;;;12.50;99.90;;;;;;4994325;28;20297;-64
2023/04/25 11:18:00;;;;;;;0.80;0.52;;;12.40;99.90;;;;;;4994084;28;20409;-64
2023/04/25 11:20:29;;;;;;;0.70;0.65;;;12.30;99.90;;;;;;4994521;28;20655;-64
2023/04/25 11:22:59;;;;;;;0.60;0.40;;;12.40;99.90;;;;;;4993784;28;20205;-64
2023/04/25 11:25:27;;;;;;;0.50;0.40;;;12.60;99.90;;;;;;4994164;28;20292;-64
2023/04/25 11:27:58;;;;;;;0.50;0.40;;;12.70;99.90;;;;;;4997735;28;20233;-62
2023/04/25 11:30:28;;;;;;;0.52;0.40;;;12.80;99.90;;;;;;4998138;28;20251;-64
2023/04/25 11:32:57;;;;;;;0.80;0.68;;;12.80;99.90;;;;;;4997708;28;20214;-64
2023/04/25 11:35:25;;;;;;;1.60;0.47;;;12.80;99.90;;;;;;4986346;28;20646;-64
2023/04/25 11:37:53;;;;;;;0.60;0.40;;;12.60;99.90;;;;;;4994038;28;20233;-65
2023/04/25 11:40:24;;;;;;;0.93;0.73;;;12.70;99.90;;;;;;4986307;28;20209;-64
2023/04/25 11:42:52;;;;;;;0.50;0.40;;;12.60;99.90;;;;;;4992433;28;20237;-64
2023/04/25 11:45:24;;;;;;;0.80;0.50;;;12.40;99.90;;;;;;4993640;28;20682;-64
2023/04/25 11:47:52;;;;;;;0.50;0.30;;;12.30;99.90;;;;;;4994041;28;20264;-64
2023/04/25 11:50:20;;;;;;;0.60;0.50;;;12.30;99.90;;;;;;4993688;28;20241;-63
2023/04/25 11:52:50;;;;;;;0.50;0.30;;;12.40;99.90;;;;;;4993854;28;20216;-64
2023/04/25 11:55:20;;;;;;;2.38;0.50;;;12.40;99.90;;;;;;4993454;28;20233;-64
2023/04/25 11:57:50;;;;;;;0.57;0.40;;;12.50;99.90;;;;;;4996570;28;20229;-64
2023/04/25 12:00:20;;;;;;;0.70;0.63;;;12.60;99.90;;;;;;5003890;28;20650;-64
2023/04/25 12:02:53;;;;;;;0.70;0.50;;;12.60;99.90;;;;;;4998886;28;20247;-64
2023/04/25 12:05:25;;;;;;;0.60;0.40;;;12.70;99.90;;;;;;4993362;28;20205;-64
2023/04/25 12:08:12;;;;;;;0.60;0.50;;;12.60;99.90;;;;;;4993152;28;20205;-64
2023/04/25 12:10:42;;;;;;;0.52;0.40;;;12.60;99.90;;;;;;4993446;28;20240;-64
2023/04/25 12:13:21;;;;;;;0.85;0.77;;;12.50;99.90;;;;;;4993438;28;20264;-64
2023/04/25 12:15:49;;;;;;;0.60;0.45;;;12.40;99.90;;;;;;4993100;28;20324;-64
2023/04/25 12:18:22;;;;;;;0.80;0.60;;;12.40;99.90;;;;;;4993031;28;20221;-65
2023/04/25 12:20:49;;;;;;;0.60;0.40;;;12.40;99.90;;;;;;4991405;28;20293;-64
2023/04/25 12:23:18;;;;;;;0.60;0.40;;;12.40;99.90;;;;;;4992991;28;20288;-64
2023/04/25 12:25:46;;;;;;;0.60;0.47;;;12.40;99.90;;;;;;4993303;28;20697;-64
2023/04/25 12:28:15;;;;;;;0.50;0.30;;;12.40;99.90;;;;;;4995207;28;20234;-64
2023/04/25 12:30:57;;;;;;;0.70;0.70;;;12.30;99.90;;;;;;5011541;28;20261;-65
2023/04/25 12:33:27;;;;;;;0.50;0.30;;;12.30;99.90;;;;;;4993122;28;20206;-64
2023/04/25 12:35:57;;;;;;;0.50;0.40;;;12.40;99.90;;;;;;4993023;28;20260;-64
2023/04/25 12:38:26;;;;;;;0.50;0.30;;;12.30;99.90;;;;;;4992675;28;20308;-64
2023/04/25 12:40:54;;;;;;;0.65;0.65;;;12.30;99.90;;;;;;4992894;28;20210;-65
2023/04/25 12:43:22;;;;;;;1.00;0.73;;;12.40;99.90;;;;;;4991665;28;20741;-64
2023/04/25 12:45:50;;;;;;;0.50;0.40;;;12.40;99.90;;;;;;4987985;28;20615;-64
2023/04/25 12:48:18;;;;;;;0.60;0.40;;;12.50;99.90;;;;;;4992430;28;20202;-64
2023/04/25 12:50:49;;;;;;;0.70;0.60;;;12.30;99.90;;;;;;4992728;28;20245;-65
2023/04/25 12:53:18;;;;;;;0.88;0.43;;;12.30;99.90;;;;;;4992531;28;20292;-64
2023/04/25 12:55:47;;;;;;;0.85;0.52;;;12.00;99.90;;;;;;4992633;28;20800;-64
2023/04/25 12:58:15;;;;;;;0.50;0.40;;;11.90;99.90;;;;;;4996672;28;20256;-64
2023/04/25 13:00:43;;;;;;;0.60;0.47;;;11.90;99.90;;;;;;5000886;28;20202;-64